Terminal Aerodrome Forecast
Issued by NWS

Home | Current Version | Previous Version | Text Only | Print | Product List | Glossary On
Versions: 1 2 3 4 5 6 7 8 9 10 11 12 13 14 15 16 17 18 19
000
FTUS46 KLOX 041540 AAB
TAFVNY
TAF AMD
KVNY 041540Z 0416/0512 16008KT P6SM OVC030
     FM041800 15006KT P6SM BKN035
     FM042000 15008KT P6SM SCT035
     FM050300 VRB03KT P6SM SKC
     FM050900 VRB03KT P6SM BKN025=

USA.gov is the U.S. government's official web portal to all federal, state and local government web resources and services.